createdAt,value
2018-03-04T12:26:28.655Z,6.00
2018-03-04T12:28:56.038Z,7.40
2018-03-04T12:31:23.443Z,7.73
2018-03-04T12:33:50.873Z,16.83
2018-03-04T12:36:18.257Z,42.40
2018-03-04T12:38:45.638Z,8.97
2018-03-04T12:41:13.021Z,13.73
2018-03-04T12:43:40.490Z,70.43
2018-03-04T12:46:07.910Z,84.33
2018-03-04T12:48:37.062Z,91.13
2018-03-04T12:51:04.457Z,106.97
2018-03-04T12:53:31.991Z,102.37
2018-03-04T12:55:59.411Z,109.07
2018-03-04T12:58:26.847Z,101.37
2018-03-04T13:00:54.257Z,99.83
2018-03-04T13:03:21.651Z,96.47
2018-03-04T13:05:49.070Z,109.13
2018-03-04T13:08:16.459Z,96.03
2018-03-04T13:10:43.903Z,142.33
2018-03-04T13:13:11.341Z,144.83
2018-03-04T13:15:38.797Z,105.10
2018-03-04T13:18:06.166Z,88.73
2018-03-04T13:20:33.557Z,82.67
2018-03-04T13:23:00.949Z,87.60
2018-03-04T13:25:28.370Z,94.93
2018-03-04T13:27:55.762Z,78.73
2018-03-04T13:30:23.187Z,69.57
2018-03-04T13:32:50.585Z,72.07
2018-03-04T13:35:17.978Z,69.03
2018-03-04T13:37:45.406Z,55.37
2018-03-04T13:40:12.901Z,54.13
2018-03-04T13:42:40.384Z,48.43
2018-03-04T13:45:07.783Z,54.50
2018-03-04T13:47:35.186Z,53.73
2018-03-04T13:50:02.618Z,50.00
2018-03-04T13:52:30.010Z,52.60
2018-03-04T13:54:57.399Z,44.63
2018-03-04T13:57:24.791Z,47.67
2018-03-04T13:59:52.208Z,46.53
2018-03-04T14:02:19.626Z,47.23
2018-03-04T14:04:47.038Z,44.07
2018-03-04T14:07:14.434Z,40.97
2018-03-04T14:09:41.822Z,48.63
2018-03-04T14:12:09.245Z,58.97
2018-03-04T14:14:36.872Z,42.30
2018-03-04T14:17:04.257Z,42.30
2018-03-04T14:19:32.422Z,50.83
2018-03-04T14:21:59.840Z,48.60
2018-03-04T14:24:27.314Z,44.13
2018-03-04T14:26:54.710Z,55.60
2018-03-04T14:29:22.183Z,45.90
2018-03-04T14:31:49.592Z,43.80
2018-03-04T14:34:17.099Z,39.67
2018-03-04T14:36:44.523Z,43.37
2018-03-04T14:39:11.926Z,40.83
2018-03-04T14:41:39.338Z,38.13
2018-03-04T14:44:06.751Z,47.90
2018-03-04T14:46:34.173Z,39.37
2018-03-04T14:49:01.565Z,39.37
2018-03-04T14:51:28.954Z,40.53
2018-03-04T14:53:56.340Z,44.43
2018-03-04T14:56:23.730Z,41.40
2018-03-04T14:58:51.114Z,40.10
2018-03-04T15:01:18.511Z,42.67
2018-03-04T15:03:45.974Z,41.80
2018-03-04T15:06:13.358Z,47.20
2018-03-04T15:08:40.769Z,44.97
2018-03-04T15:11:08.172Z,48.63
2018-03-04T15:13:35.574Z,41.83
2018-03-04T15:16:03.004Z,51.50
2018-03-04T15:18:30.393Z,43.77
2018-03-04T15:20:57.810Z,44.07
2018-03-04T15:23:25.214Z,43.87
2018-03-04T15:25:52.820Z,47.03
2018-03-04T15:28:21.006Z,40.90
2018-03-04T15:30:48.390Z,47.07
2018-03-04T15:33:15.826Z,50.00
2018-03-04T15:35:43.227Z,49.63
2018-03-04T15:38:10.665Z,59.27
2018-03-04T15:40:38.067Z,56.40
2018-03-04T15:43:05.499Z,53.07
2018-03-04T15:45:32.913Z,54.60
2018-03-04T15:48:00.303Z,51.03
2018-03-04T15:50:27.689Z,54.10
2018-03-04T15:52:55.106Z,54.27
2018-03-04T15:55:22.500Z,47.50
2018-03-04T15:57:49.897Z,57.13
2018-03-04T16:00:17.326Z,54.83
2018-03-04T16:02:44.715Z,55.80
2018-03-04T16:05:12.109Z,63.53
2018-03-04T16:07:39.542Z,59.43
2018-03-04T16:10:06.923Z,59.50
2018-03-04T16:12:34.508Z,59.10
2018-03-04T16:15:01.905Z,57.43
2018-03-04T16:17:29.330Z,58.40
2018-03-04T16:19:56.711Z,55.57
2018-03-04T16:22:24.176Z,60.57
2018-03-04T16:24:51.566Z,62.17
2018-03-04T16:27:18.952Z,61.37
2018-03-04T16:29:46.346Z,57.33
2018-03-04T16:32:13.730Z,58.73
2018-03-04T16:34:41.127Z,61.13
2018-03-04T16:37:08.533Z,55.40
2018-03-04T16:39:35.986Z,61.10
2018-03-04T16:42:03.370Z,59.57
2018-03-04T16:44:30.760Z,68.07
2018-03-04T16:46:58.154Z,58.50
2018-03-04T16:49:25.604Z,57.47
2018-03-04T16:51:53.003Z,62.10
2018-03-04T16:54:20.398Z,62.77
2018-03-04T16:56:47.781Z,69.43
2018-03-04T16:59:15.222Z,61.87
2018-03-04T17:01:42.647Z,56.10
2018-03-04T17:04:10.035Z,60.57
2018-03-04T17:06:37.475Z,66.40
2018-03-04T17:09:04.904Z,64.03
2018-03-04T17:11:32.302Z,60.43
2018-03-04T17:13:59.717Z,64.43
2018-03-04T17:16:27.119Z,64.87
2018-03-04T17:18:54.502Z,66.00
2018-03-04T17:21:22.001Z,64.13
2018-03-04T17:23:49.402Z,61.73
2018-03-04T17:26:16.814Z,59.73
2018-03-04T17:28:44.198Z,64.63
2018-03-04T17:31:11.590Z,59.37
2018-03-04T17:33:38.970Z,62.53
2018-03-04T17:36:06.415Z,135.77
2018-03-04T17:38:33.814Z,84.37
2018-03-04T17:41:01.199Z,59.87
2018-03-04T17:43:28.665Z,71.60
2018-03-04T17:45:56.102Z,57.83
2018-03-04T17:48:23.493Z,62.23
2018-03-04T17:50:50.969Z,63.57
2018-03-04T17:53:18.369Z,70.40
2018-03-04T17:55:45.798Z,69.13
2018-03-04T17:58:13.188Z,72.47
2018-03-04T18:00:40.575Z,78.07
2018-03-04T18:03:07.968Z,92.17
2018-03-04T18:05:35.398Z,98.50
2018-03-04T18:08:02.786Z,86.03
2018-03-04T18:10:30.226Z,77.97
2018-03-04T18:12:57.645Z,84.47
2018-03-04T18:15:25.033Z,85.53
2018-03-04T18:17:52.434Z,89.47
2018-03-04T18:20:19.876Z,86.80
2018-03-04T18:22:47.303Z,109.73
2018-03-04T18:25:14.746Z,124.10
2018-03-04T18:27:42.207Z,107.57
2018-03-04T18:30:09.599Z,94.43
2018-03-04T18:32:36.995Z,87.57
2018-03-04T18:35:04.389Z,78.60
2018-03-04T18:37:31.798Z,74.97
2018-03-04T18:39:59.191Z,84.57
2018-03-04T18:42:26.584Z,101.20
2018-03-04T18:44:54.416Z,97.87
2018-03-04T18:47:21.813Z,109.70
2018-03-04T18:49:49.244Z,92.40
2018-03-04T18:52:16.708Z,91.90
2018-03-04T18:54:44.113Z,95.80
2018-03-04T18:57:11.521Z,91.30
2018-03-04T18:59:38.959Z,83.70
2018-03-04T19:02:06.417Z,97.87
2018-03-04T19:04:33.851Z,101.57
2018-03-04T19:07:01.314Z,112.53
2018-03-04T19:09:28.758Z,122.70
2018-03-04T19:11:56.193Z,112.50
2018-03-04T19:14:23.608Z,117.00
2018-03-04T19:16:51.002Z,115.37
2018-03-04T19:19:18.422Z,114.97
2018-03-04T19:21:46.562Z,118.47
2018-03-04T19:24:13.955Z,115.93
2018-03-04T19:26:41.382Z,102.57
2018-03-04T19:29:08.794Z,109.90
2018-03-04T19:31:36.178Z,107.07
2018-03-04T19:34:04.194Z,100.13
2018-03-04T19:36:31.584Z,109.20
2018-03-04T19:38:58.974Z,106.20
2018-03-04T19:41:26.394Z,97.83
2018-03-04T19:43:53.778Z,91.87
2018-03-04T19:46:21.169Z,80.33
2018-03-04T19:48:48.679Z,80.53
2018-03-04T19:51:16.066Z,91.10
2018-03-04T19:53:43.477Z,80.10
2018-03-04T19:56:11.016Z,98.73
2018-03-04T19:58:38.401Z,85.50
2018-03-04T20:01:05.778Z,87.77
2018-03-04T20:03:33.206Z,87.27
2018-03-04T20:06:00.607Z,91.53
2018-03-04T20:08:27.989Z,92.53
2018-03-04T20:10:55.383Z,95.73
2018-03-04T20:13:22.770Z,118.53
2018-03-04T20:15:50.213Z,114.33
2018-03-04T20:18:17.621Z,105.27
2018-03-04T20:20:45.065Z,97.27
2018-03-04T20:23:12.446Z,103.77
2018-03-04T20:25:39.869Z,109.43
2018-03-04T20:28:07.259Z,99.00
2018-03-04T20:30:34.647Z,106.23
2018-03-04T20:33:02.058Z,125.60
2018-03-04T20:35:29.446Z,108.57
2018-03-04T20:37:56.890Z,112.57
2018-03-04T20:40:24.274Z,110.30
2018-03-04T20:42:51.688Z,135.13
2018-03-04T20:45:19.188Z,121.47
2018-03-04T20:47:46.712Z,98.20
2018-03-04T20:50:14.099Z,86.50
2018-03-04T20:52:41.485Z,97.43
2018-03-04T20:55:08.867Z,96.40
2018-03-04T20:57:36.270Z,81.97
2018-03-04T21:00:03.665Z,83.17
2018-03-04T21:02:31.078Z,85.67
2018-03-04T21:04:58.666Z,84.53
2018-03-04T21:07:26.082Z,79.73
2018-03-04T21:09:53.473Z,72.13
2018-03-04T21:12:20.870Z,83.93
2018-03-04T21:14:48.255Z,70.60
2018-03-04T21:17:15.724Z,67.23
2018-03-04T21:19:43.183Z,66.30
2018-03-04T21:22:10.595Z,72.67
2018-03-04T21:24:38.026Z,56.07
2018-03-04T21:27:05.425Z,67.40
2018-03-04T21:29:32.808Z,65.90
2018-03-04T21:32:00.230Z,54.13
2018-03-04T21:34:27.618Z,53.43
2018-03-04T21:36:54.997Z,51.23
2018-03-04T21:39:23.054Z,51.63
2018-03-04T21:41:50.455Z,56.03
2018-03-04T21:44:17.830Z,52.07
2018-03-04T21:46:45.366Z,49.63
2018-03-04T21:49:12.812Z,59.90
2018-03-04T21:51:40.247Z,55.23
2018-03-04T21:54:07.626Z,55.20
2018-03-04T21:56:35.019Z,48.90
2018-03-04T21:59:02.415Z,49.70
2018-03-04T22:01:29.841Z,49.63
2018-03-04T22:03:57.221Z,48.03
2018-03-04T22:06:24.606Z,53.47
2018-03-04T22:08:51.994Z,48.90
2018-03-04T22:11:19.428Z,50.10
2018-03-04T22:13:46.809Z,52.13
2018-03-04T22:16:14.193Z,52.57
2018-03-04T22:18:41.583Z,54.00
2018-03-04T22:21:08.985Z,52.63
2018-03-04T22:23:36.451Z,51.90
2018-03-04T22:26:03.849Z,54.90
2018-03-04T22:28:31.230Z,55.03
2018-03-04T22:30:58.616Z,65.30
2018-03-04T22:33:26.126Z,67.10
2018-03-04T22:35:53.527Z,57.53
2018-03-04T22:38:20.906Z,59.57
2018-03-04T22:40:48.297Z,63.63
2018-03-04T22:43:15.685Z,65.90
2018-03-04T22:45:43.075Z,56.73
2018-03-04T22:48:10.466Z,61.13
2018-03-04T22:50:37.855Z,58.47
2018-03-04T22:53:05.472Z,55.57
2018-03-04T22:55:32.881Z,59.50
2018-03-04T22:58:00.265Z,54.03
2018-03-04T23:00:27.668Z,56.47
2018-03-04T23:02:55.129Z,57.47
2018-03-04T23:05:22.510Z,53.57
2018-03-04T23:07:49.896Z,53.30
2018-03-04T23:10:17.465Z,50.67
2018-03-04T23:12:44.897Z,52.17
2018-03-04T23:15:12.333Z,48.00
2018-03-04T23:17:39.770Z,50.13
2018-03-04T23:20:07.161Z,51.50
2018-03-04T23:22:34.598Z,59.57
2018-03-04T23:25:02.814Z,55.93
2018-03-04T23:27:30.226Z,52.83
2018-03-04T23:29:57.625Z,55.33
2018-03-04T23:32:25.011Z,56.20
2018-03-04T23:34:55.383Z,54.87
2018-03-04T23:37:22.769Z,68.50
2018-03-04T23:39:50.157Z,49.53
2018-03-04T23:42:17.578Z,59.93
2018-03-04T23:44:44.962Z,71.67
2018-03-04T23:47:12.353Z,58.80
2018-03-04T23:49:39.769Z,60.60
2018-03-04T23:52:07.158Z,58.33
2018-03-04T23:54:34.569Z,57.63
2018-03-04T23:57:01.997Z,62.07
2018-03-04T23:59:29.462Z,55.67
